Terminal Aerodrome Forecast
Issued by NWS Tuscon, AZ

Home | Current Version | Previous Version | Text Only | Print | Product List | Glossary On
Versions: 1 2 3 4 5 6 7 8 9 10 11 12 13
489
FTUS45 KTWC 261720
TAFDUG
TAF
KDUG 261720Z 2618/2718 26006KT P6SM SCT070
     FM261900 26008KT P6SM VCTS SCT050CB BKN080
     FM262300 32008KT P6SM VCSH SCT060 BKN080
     FM270400 VRB04KT P6SM FEW060 SCT090 BKN180
     FM271000 VRB03KT P6SM SCT100 SCT200=

USA.gov is the U.S. government's official web portal to all federal, state and local government web resources and services.